sensor_id;sensor_type;location;lat;lon;timestamp;pressure;altitude;pressure_sealevel;temperature;humidity
42945;BME280;28584;42.636;23.294;2023-04-01T00:01:56;161889.56;;;12.52;52.95
42945;BME280;28584;42.636;23.294;2023-04-01T00:04:21;161925.66;;;12.66;52.45
42945;BME280;28584;42.636;23.294;2023-04-01T00:06:47;161881.53;;;12.49;54.28
42945;BME280;28584;42.636;23.294;2023-04-01T00:09:13;161845.44;;;12.36;55.10
42945;BME280;28584;42.636;23.294;2023-04-01T00:11:39;161815.97;;;12.25;56.21
42945;BME280;28584;42.636;23.294;2023-04-01T00:14:06;161777.19;;;12.10;57.09
42945;BME280;28584;42.636;23.294;2023-04-01T00:16:32;161770.47;;;12.08;57.47
42945;BME280;28584;42.636;23.294;2023-04-01T00:18:57;161719.66;;;11.89;58.63
42945;BME280;28584;42.636;23.294;2023-04-01T00:21:23;161623.38;;;11.53;59.61
42945;BME280;28584;42.636;23.294;2023-04-01T00:23:50;161553.84;;;11.27;61.70
42945;BME280;28584;42.636;23.294;2023-04-01T00:26:16;161539.13;;;11.21;63.25
42945;BME280;28584;42.636;23.294;2023-04-01T00:28:44;161561.84;;;11.30;64.67
42945;BME280;28584;42.636;23.294;2023-04-01T00:31:10;161523.09;;;11.15;67.31
42945;BME280;28584;42.636;23.294;2023-04-01T00:33:37;161417.50;;;10.75;74.46
42945;BME280;28584;42.636;23.294;2023-04-01T00:36:14;161445.59;;;10.86;78.06
42945;BME280;28584;42.636;23.294;2023-04-01T00:38:40;161404.16;;;10.70;82.57
42945;BME280;28584;42.636;23.294;2023-04-01T00:41:08;161356.09;;;10.52;86.05
42945;BME280;28584;42.636;23.294;2023-04-01T00:43:35;161366.75;;;10.56;94.80
42945;BME280;28584;42.636;23.294;2023-04-01T00:46:01;161374.78;;;10.59;93.25
42945;BME280;28584;42.636;23.294;2023-04-01T00:48:35;161337.38;;;10.45;89.35
42945;BME280;28584;42.636;23.294;2023-04-01T00:51:05;161263.88;;;10.18;96.76
42945;BME280;28584;42.636;23.294;2023-04-01T00:53:32;161297.28;;;10.30;95.58
42945;BME280;28584;42.636;23.294;2023-04-01T00:56:07;161302.63;;;10.32;94.07
42945;BME280;28584;42.636;23.294;2023-04-01T00:58:37;161283.94;;;10.25;96.08
42945;BME280;28584;42.636;23.294;2023-04-01T01:01:04;161265.25;;;10.18;92.65
42945;BME280;28584;42.636;23.294;2023-04-01T01:03:30;161227.81;;;10.04;95.19
42945;BME280;28584;42.636;23.294;2023-04-01T01:06:27;161171.72;;;9.83;100.00
42945;BME280;28584;42.636;23.294;2023-04-01T01:11:43;161123.66;;;9.65;100.00
42945;BME280;28584;42.636;23.294;2023-04-01T01:14:40;161120.97;;;9.64;100.00
42945;BME280;28584;42.636;23.294;2023-04-01T01:17:41;161095.63;;;9.55;100.00
42945;BME280;28584;42.636;23.294;2023-04-01T01:33:48;161198.44;;;9.93;88.60
42945;BME280;28584;42.636;23.294;2023-04-01T01:36:17;161162.34;;;9.80;92.32
42945;BME280;28584;42.636;23.294;2023-04-01T01:38:47;161163.69;;;9.80;90.41
42945;BME280;28584;42.636;23.294;2023-04-01T01:41:15;161126.31;;;9.66;91.72
42945;BME280;28584;42.636;23.294;2023-04-01T01:43:44;161155.69;;;9.77;91.15
42945;BME280;28584;42.636;23.294;2023-04-01T01:46:14;161130.34;;;9.68;91.93
42945;BME280;28584;42.636;23.294;2023-04-01T01:48:42;161162.34;;;9.80;87.07
42945;BME280;28584;42.636;23.294;2023-04-01T01:51:08;161246.56;;;10.11;79.68
42945;BME280;28584;42.636;23.294;2023-04-01T01:53:34;161266.53;;;10.19;78.14
42945;BME280;28584;42.636;23.294;2023-04-01T01:56:00;161254.56;;;10.14;80.08
42945;BME280;28584;42.636;23.294;2023-04-01T01:58:45;161257.22;;;10.15;77.85
42945;BME280;28584;42.636;23.294;2023-04-01T02:01:15;161247.84;;;10.12;76.09
42945;BME280;28584;42.636;23.294;2023-04-01T02:03:43;161291.97;;;10.28;67.60
42945;BME280;28584;42.636;23.294;2023-04-01T02:06:14;161329.38;;;10.42;67.95
42945;BME280;28584;42.636;23.294;2023-04-01T02:08:45;161345.41;;;10.48;68.25
42945;BME280;28584;42.636;23.294;2023-04-01T02:11:15;161392.13;;;10.66;65.44
42945;BME280;28584;42.636;23.294;2023-04-01T02:13:47;161414.84;;;10.74;64.82
42945;BME280;28584;42.636;23.294;2023-04-01T02:16:28;161420.22;;;10.76;66.53
42945;BME280;28584;42.636;23.294;2023-04-01T02:18:57;161382.81;;;10.62;66.56
42945;BME280;28584;42.636;23.294;2023-04-01T02:21:28;161346.72;;;10.49;67.69
42945;BME280;28584;42.636;23.294;2023-04-01T02:23:56;161384.13;;;10.63;68.16
42945;BME280;28584;42.636;23.294;2023-04-01T02:26:24;161337.38;;;10.45;70.39
42945;BME280;28584;42.636;23.294;2023-04-01T02:28:53;161302.63;;;10.32;72.32
42945;BME280;28584;42.636;23.294;2023-04-01T02:31:19;161310.66;;;10.35;71.96
42945;BME280;28584;42.636;23.294;2023-04-01T02:33:46;161294.63;;;10.29;72.74
42945;BME280;28584;42.636;23.294;2023-04-01T02:36:13;161287.94;;;10.27;72.19
42945;BME280;28584;42.636;23.294;2023-04-01T02:38:40;161298.63;;;10.31;71.33
42945;BME280;28584;42.636;23.294;2023-04-01T02:41:05;161310.66;;;10.35;69.41
42945;BME280;28584;42.636;23.294;2023-04-01T02:43:31;161287.94;;;10.27;73.45
42945;BME280;28584;42.636;23.294;2023-04-01T02:45:57;161275.91;;;10.22;76.38
42945;BME280;28584;42.636;23.294;2023-04-01T02:48:22;161273.25;;;10.21;77.61
42945;BME280;28584;42.636;23.294;2023-04-01T02:50:48;161259.88;;;10.16;77.02
42945;BME280;28584;42.636;23.294;2023-04-01T02:53:13;161257.22;;;10.15;80.26
42945;BME280;28584;42.636;23.294;2023-04-01T02:55:39;161274.56;;;10.22;81.46
42945;BME280;28584;42.636;23.294;2023-04-01T02:58:04;161227.81;;;10.04;80.25
42945;BME280;28584;42.636;23.294;2023-04-01T03:00:31;161209.09;;;9.97;83.08
42945;BME280;28584;42.636;23.294;2023-04-01T03:02:56;161222.44;;;10.02;83.51
42945;BME280;28584;42.636;23.294;2023-04-01T03:05:22;161234.53;;;10.07;80.89
42945;BME280;28584;42.636;23.294;2023-04-01T03:07:47;161241.19;;;10.09;82.67
42945;BME280;28584;42.636;23.294;2023-04-01T03:10:13;161225.09;;;10.03;76.66
42945;BME280;28584;42.636;23.294;2023-04-01T03:12:39;161195.72;;;9.92;82.99
42945;BME280;28584;42.636;23.294;2023-04-01T03:15:04;161213.13;;;9.99;82.49
42945;BME280;28584;42.636;23.294;2023-04-01T03:17:30;161227.81;;;10.04;77.74
42945;BME280;28584;42.636;23.294;2023-04-01T03:19:55;161250.56;;;10.13;76.62
42945;BME280;28584;42.636;23.294;2023-04-01T03:22:21;161231.88;;;10.06;91.57
42945;BME280;28584;42.636;23.294;2023-04-01T03:24:47;161186.41;;;9.89;100.00
42945;BME280;28584;42.636;23.294;2023-04-01T03:27:13;161075.56;;;9.47;100.00
42945;BME280;28584;42.636;23.294;2023-04-01T03:29:38;161075.56;;;9.47;100.00
42945;BME280;28584;42.636;23.294;2023-04-01T03:32:04;161035.56;;;9.32;100.00
42945;BME280;28584;42.636;23.294;2023-04-01T03:34:29;160919.47;;;8.89;100.00
42945;BME280;28584;42.636;23.294;2023-04-01T03:36:55;160872.75;;;8.71;100.00
42945;BME280;28584;42.636;23.294;2023-04-01T03:39:20;160835.41;;;8.57;100.00
42945;BME280;28584;42.636;23.294;2023-04-01T03:41:45;160790.03;;;8.40;100.00
42945;BME280;28584;42.636;23.294;2023-04-01T03:44:11;160756.72;;;8.27;100.00
42945;BME280;28584;42.636;23.294;2023-04-01T03:46:37;160758.06;;;8.28;100.00
42945;BME280;28584;42.636;23.294;2023-04-01T03:49:05;160766.06;;;8.31;100.00
42945;BME280;28584;42.636;23.294;2023-04-01T03:51:37;160747.41;;;8.24;100.00
42945;BME280;28584;42.636;23.294;2023-04-01T03:54:02;160746.03;;;8.23;100.00
42945;BME280;28584;42.636;23.294;2023-04-01T03:56:28;160725.97;;;8.16;100.00
42945;BME280;28584;42.636;23.294;2023-04-01T03:58:53;160727.31;;;8.16;100.00
42945;BME280;28584;42.636;23.294;2023-04-01T04:01:20;160748.69;;;8.24;100.00
42945;BME280;28584;42.636;23.294;2023-04-01T04:03:46;160742.03;;;8.22;100.00
42945;BME280;28584;42.636;23.294;2023-04-01T04:06:14;160742.03;;;8.22;100.00
42945;BME280;28584;42.636;23.294;2023-04-01T04:08:39;160755.41;;;8.27;100.00
42945;BME280;28584;42.636;23.294;2023-04-01T04:11:05;160795.41;;;8.42;100.00
42945;BME280;28584;42.636;23.294;2023-04-01T04:13:30;160795.41;;;8.42;100.00
42945;BME280;28584;42.636;23.294;2023-04-01T04:15:56;160788.75;;;8.39;100.00
42945;BME280;28584;42.636;23.294;2023-04-01T04:18:21;160806.06;;;8.46;100.00
42945;BME280;28584;42.636;23.294;2023-04-01T04:20:47;160802.06;;;8.44;100.00
42945;BME280;28584;42.636;23.294;2023-04-01T04:23:17;160803.41;;;8.45;100.00
42945;BME280;28584;42.636;23.294;2023-04-01T04:25:54;160806.06;;;8.46;100.00
42945;BME280;28584;42.636;23.294;2023-04-01T04:28:19;160820.72;;;8.52;100.00
42945;BME280;28584;42.636;23.294;2023-04-01T04:30:45;160819.44;;;8.51;100.00
42945;BME280;28584;42.636;23.294;2023-04-01T04:33:10;160832.75;;;8.56;100.00
42945;BME280;28584;42.636;23.294;2023-04-01T04:35:36;160822.09;;;8.52;100.00
42945;BME280;28584;42.636;23.294;2023-04-01T04:38:01;160824.72;;;8.53;100.00
42945;BME280;28584;42.636;23.294;2023-04-01T04:40:26;160812.72;;;8.48;100.00
42945;BME280;28584;42.636;23.294;2023-04-01T04:42:52;160822.09;;;8.52;100.00
42945;BME280;28584;42.636;23.294;2023-04-01T04:45:17;160830.09;;;8.55;100.00
42945;BME280;28584;42.636;23.294;2023-04-01T04:47:42;160830.09;;;8.55;100.00
42945;BME280;28584;42.636;23.294;2023-04-01T04:50:08;160824.72;;;8.53;100.00
42945;BME280;28584;42.636;23.294;2023-04-01T04:52:33;160816.72;;;8.50;100.00
42945;BME280;28584;42.636;23.294;2023-04-01T04:54:59;160814.06;;;8.49;100.00
42945;BME280;28584;42.636;23.294;2023-04-01T04:57:24;160794.06;;;8.41;100.00
42945;BME280;28584;42.636;23.294;2023-04-01T04:59:49;160779.38;;;8.36;100.00
42945;BME280;28584;42.636;23.294;2023-04-01T05:02:15;160775.38;;;8.34;100.00
42945;BME280;28584;42.636;23.294;2023-04-01T05:04:40;160759.41;;;8.28;100.00
42945;BME280;28584;42.636;23.294;2023-04-01T05:07:05;160756.72;;;8.27;100.00
42945;BME280;28584;42.636;23.294;2023-04-01T05:09:31;160750.06;;;8.25;100.00
42945;BME280;28584;42.636;23.294;2023-04-01T05:11:57;160688.66;;;8.02;100.00
42945;BME280;28584;42.636;23.294;2023-04-01T05:14:22;160683.34;;;8.00;100.00
42945;BME280;28584;42.636;23.294;2023-04-01T05:16:48;160676.69;;;7.97;100.00
42945;BME280;28584;42.636;23.294;2023-04-01T05:19:14;160659.31;;;7.91;100.00
42945;BME280;28584;42.636;23.294;2023-04-01T05:21:39;160614.00;;;7.74;100.00
42945;BME280;28584;42.636;23.294;2023-04-01T05:24:08;160654.03;;;7.89;100.00
42945;BME280;28584;42.636;23.294;2023-04-01T05:26:34;160668.69;;;7.94;100.00
42945;BME280;28584;42.636;23.294;2023-04-01T05:29:00;160707.31;;;8.09;100.00
42945;BME280;28584;42.636;23.294;2023-04-01T05:31:25;160762.06;;;8.29;100.00
42945;BME280;28584;42.636;23.294;2023-04-01T05:33:51;160875.44;;;8.72;100.00
42945;BME280;28584;42.636;23.294;2023-04-01T05:36:18;161043.56;;;9.35;100.00
42945;BME280;28584;42.636;23.294;2023-04-01T05:38:43;161225.09;;;10.03;100.00
42945;BME280;28584;42.636;23.294;2023-04-01T05:41:10;161353.38;;;10.51;100.00
42945;BME280;28584;42.636;23.294;2023-04-01T05:43:36;161484.38;;;11.00;100.00
42945;BME280;28584;42.636;23.294;2023-04-01T05:46:02;161703.63;;;11.83;100.00
42945;BME280;28584;42.636;23.294;2023-04-01T05:48:27;161671.53;;;11.71;97.46
42945;BME280;28584;42.636;23.294;2023-04-01T05:50:52;161782.50;;;12.12;91.78
42945;BME280;28584;42.636;23.294;2023-04-01T05:53:18;161861.44;;;12.42;77.66
42945;BME280;28584;42.636;23.294;2023-04-01T05:55:43;161747.78;;;11.99;82.12
42945;BME280;28584;42.636;23.294;2023-04-01T05:58:09;161921.66;;;12.64;90.08
42945;BME280;28584;42.636;23.294;2023-04-01T06:00:34;161931.03;;;12.68;74.34
42945;BME280;28584;42.636;23.294;2023-04-01T06:02:59;161906.94;;;12.59;71.63
42945;BME280;28584;42.636;23.294;2023-04-01T06:05:28;161951.06;;;12.75;70.65
42945;BME280;28584;42.636;23.294;2023-04-01T06:08:15;161987.25;;;12.89;67.00
42945;BME280;28584;42.636;23.294;2023-04-01T06:19:09;161916.31;;;12.62;75.14
42945;BME280;28584;42.636;23.294;2023-04-01T06:27:36;162193.44;;;13.66;66.41
42945;BME280;28584;42.636;23.294;2023-04-01T06:36:05;161886.91;;;12.51;63.11
42945;BME280;28584;42.636;23.294;2023-04-01T06:38:41;162075.59;;;13.22;65.24
42945;BME280;28584;42.636;23.294;2023-04-01T06:44:07;162030.13;;;13.05;64.20
42945;BME280;28584;42.636;23.294;2023-04-01T06:52:18;162147.91;;;13.49;62.89
42945;BME280;28584;42.636;23.294;2023-04-01T06:54:53;162265.78;;;13.93;61.15
42945;BME280;28584;42.636;23.294;2023-04-01T06:57:26;162303.28;;;14.07;60.08
42945;BME280;28584;42.636;23.294;2023-04-01T06:59:56;162316.63;;;14.12;57.59
42945;BME280;28584;42.636;23.294;2023-04-01T07:02:39;162403.78;;;14.45;58.47
42945;BME280;28584;42.636;23.294;2023-04-01T07:05:07;162359.59;;;14.28;58.16
42945;BME280;28584;42.636;23.294;2023-04-01T07:07:45;162076.97;;;13.22;58.56
42945;BME280;28584;42.636;23.294;2023-04-01T07:10:25;161984.59;;;12.88;59.59
42945;BME280;28584;42.636;23.294;2023-04-01T07:12:55;162060.88;;;13.16;60.33
42945;BME280;28584;42.636;23.294;2023-04-01T07:15:39;161991.25;;;12.90;60.32
42945;BME280;28584;42.636;23.294;2023-04-01T07:18:17;162150.63;;;13.50;60.09
42945;BME280;28584;42.636;23.294;2023-04-01T07:20:43;162208.16;;;13.71;60.47
42945;BME280;28584;42.636;23.294;2023-04-01T07:23:21;162208.16;;;13.71;59.64
42945;BME280;28584;42.636;23.294;2023-04-01T07:25:52;162145.25;;;13.48;61.88
42945;BME280;28584;42.636;23.294;2023-04-01T07:28:18;161968.50;;;12.82;60.90
42945;BME280;28584;42.636;23.294;2023-04-01T07:36:38;162338.13;;;14.20;58.84
42945;BME280;28584;42.636;23.294;2023-04-01T07:42:15;162311.31;;;14.10;56.61
42945;BME280;28584;42.636;23.294;2023-04-01T07:50:31;162252.34;;;13.88;58.22
42945;BME280;28584;42.636;23.294;2023-04-01T07:55:58;162149.28;;;13.49;58.74
42945;BME280;28584;42.636;23.294;2023-04-01T07:58:35;162070.28;;;13.20;60.54
42945;BME280;28584;42.636;23.294;2023-04-01T08:07:12;162083.66;;;13.25;63.30
42945;BME280;28584;42.636;23.294;2023-04-01T08:12:31;162456.03;;;14.64;54.91
42945;BME280;28584;42.636;23.294;2023-04-01T08:20:48;163073.09;;;16.95;45.15
42945;BME280;28584;42.636;23.294;2023-04-01T08:23:19;163255.75;;;17.63;47.47
42945;BME280;28584;42.636;23.294;2023-04-01T08:26:02;163322.91;;;17.88;43.25
42945;BME280;28584;42.636;23.294;2023-04-01T08:28:33;163386.03;;;18.11;44.15
42945;BME280;28584;42.636;23.294;2023-04-01T08:31:05;163763.81;;;19.52;43.55
42945;BME280;28584;42.636;23.294;2023-04-01T08:33:33;163911.75;;;20.07;37.51
42945;BME280;28584;42.636;23.294;2023-04-01T08:36:06;164024.81;;;20.49;39.09
42945;BME280;28584;42.636;23.294;2023-04-01T08:38:51;164154.06;;;20.97;37.71
42945;BME280;28584;42.636;23.294;2023-04-01T08:41:47;163293.38;;;17.77;42.70
42945;BME280;28584;42.636;23.294;2023-04-01T08:50:35;163293.38;;;17.77;50.04
42945;BME280;28584;42.636;23.294;2023-04-01T08:56:01;163090.53;;;17.01;50.87
42945;BME280;28584;42.636;23.294;2023-04-01T09:18:43;163367.22;;;18.04;46.65
42945;BME280;28584;42.636;23.294;2023-04-01T09:22:01;163161.69;;;17.28;45.90
42945;BME280;28584;42.636;23.294;2023-04-01T09:27:03;163035.53;;;16.81;48.06
42945;BME280;28584;42.636;23.294;2023-04-01T09:40:59;163351.09;;;17.98;41.81
42945;BME280;28584;42.636;23.294;2023-04-01T09:51:31;163654.84;;;19.12;40.86
42945;BME280;28584;42.636;23.294;2023-04-01T10:00:10;164035.56;;;20.53;39.53
42945;BME280;28584;42.636;23.294;2023-04-01T10:17:51;163497.63;;;18.53;39.89
42945;BME280;28584;42.636;23.294;2023-04-01T10:23:17;163782.63;;;19.59;37.60
42945;BME280;28584;42.636;23.294;2023-04-01T10:43:13;163999.25;;;20.40;35.46
42945;BME280;28584;42.636;23.294;2023-04-01T11:25:35;163026.09;;;16.77;48.52
42945;BME280;28584;42.636;23.294;2023-04-01T11:33:56;162403.78;;;14.45;51.88
42945;BME280;28584;42.636;23.294;2023-04-01T11:36:33;162374.31;;;14.34;54.19
42945;BME280;28584;42.636;23.294;2023-04-01T11:44:26;161881.53;;;12.49;100.00
42945;BME280;28584;42.636;23.294;2023-04-01T12:05:54;160978.16;;;9.11;100.00
42945;BME280;28584;42.636;23.294;2023-04-01T12:11:26;161036.91;;;9.33;100.00
42945;BME280;28584;42.636;23.294;2023-04-01T12:14:23;161099.63;;;9.56;100.00
42945;BME280;28584;42.636;23.294;2023-04-01T12:17:03;161238.53;;;10.08;100.00
42945;BME280;28584;42.636;23.294;2023-04-01T12:22:50;161274.56;;;10.22;100.00
42945;BME280;28584;42.636;23.294;2023-04-01T12:39:29;161298.63;;;10.31;100.00
42945;BME280;28584;42.636;23.294;2023-04-01T12:42:13;161259.88;;;10.16;100.00
42945;BME280;28584;42.636;23.294;2023-04-01T12:45:18;161234.53;;;10.07;100.00
42945;BME280;28584;42.636;23.294;2023-04-01T12:56:12;161165.00;;;9.81;100.00
42945;BME280;28584;42.636;23.294;2023-04-01T13:02:11;161177.03;;;9.85;100.00
42945;BME280;28584;42.636;23.294;2023-04-01T13:10:02;161258.59;;;10.16;100.00
42945;BME280;28584;42.636;23.294;2023-04-01T13:31:29;161730.38;;;11.93;100.00
42945;BME280;28584;42.636;23.294;2023-04-01T13:34:21;161711.66;;;11.86;100.00
42945;BME280;28584;42.636;23.294;2023-04-01T13:40:01;161636.72;;;11.58;100.00
42945;BME280;28584;42.636;23.294;2023-04-01T13:42:53;161630.03;;;11.55;100.00
42945;BME280;28584;42.636;23.294;2023-04-01T13:45:50;161683.59;;;11.75;100.00
42945;BME280;28584;42.636;23.294;2023-04-01T13:54:25;161746.44;;;11.99;100.00
42945;BME280;28584;42.636;23.294;2023-04-01T14:07:41;161807.97;;;12.22;83.22
42945;BME280;28584;42.636;23.294;2023-04-01T14:10:33;161797.22;;;12.18;83.88
42945;BME280;28584;42.636;23.294;2023-04-01T14:13:12;161797.22;;;12.18;85.31
42945;BME280;28584;42.636;23.294;2023-04-01T14:19:11;161795.91;;;12.17;85.92
42945;BME280;28584;42.636;23.294;2023-04-01T14:22:21;161850.75;;;12.38;75.30
42945;BME280;28584;42.636;23.294;2023-04-01T14:27:54;161976.53;;;12.85;85.21
42945;BME280;28584;42.636;23.294;2023-04-01T14:36:29;162016.72;;;13.00;72.38
42945;BME280;28584;42.636;23.294;2023-04-01T14:50:16;162115.81;;;13.37;67.39
42945;BME280;28584;42.636;23.294;2023-04-01T14:55:53;162114.44;;;13.36;65.94
42945;BME280;28584;42.636;23.294;2023-04-01T14:58:21;162147.91;;;13.49;66.49
42945;BME280;28584;42.636;23.294;2023-04-01T15:03:59;162115.81;;;13.37;65.53
42945;BME280;28584;42.636;23.294;2023-04-01T15:06:59;162102.38;;;13.32;65.63
42945;BME280;28584;42.636;23.294;2023-04-01T15:09:49;162005.97;;;12.96;75.74
42945;BME280;28584;42.636;23.294;2023-04-01T15:26:31;162091.69;;;13.28;69.76
42945;BME280;28584;42.636;23.294;2023-04-01T15:29:23;162107.75;;;13.34;66.11
42945;BME280;28584;42.636;23.294;2023-04-01T15:35:13;162080.97;;;13.24;63.64
42945;BME280;28584;42.636;23.294;2023-04-01T15:40:53;162119.81;;;13.38;64.76
42945;BME280;28584;42.636;23.294;2023-04-01T15:43:44;162093.03;;;13.28;64.46
42945;BME280;28584;42.636;23.294;2023-04-01T15:54:38;161134.34;;;9.69;100.00
42945;BME280;28584;42.636;23.294;2023-04-01T15:57:24;160868.72;;;8.70;100.00
42945;BME280;28584;42.636;23.294;2023-04-01T16:03:21;160500.75;;;7.31;100.00
42945;BME280;28584;42.636;23.294;2023-04-01T16:06:01;160350.22;;;6.75;100.00
42945;BME280;28584;42.636;23.294;2023-04-01T16:16:57;160259.63;;;6.41;100.00
42945;BME280;28584;42.636;23.294;2023-04-01T16:22:35;160221.00;;;6.26;100.00
42945;BME280;28584;42.636;23.294;2023-04-01T16:31:25;160210.38;;;6.22;100.00
42945;BME280;28584;42.636;23.294;2023-04-01T16:34:35;160218.34;;;6.25;100.00
42945;BME280;28584;42.636;23.294;2023-04-01T16:37:11;160218.34;;;6.25;100.00
42945;BME280;28584;42.636;23.294;2023-04-01T16:39:47;160221.00;;;6.26;100.00
42945;BME280;28584;42.636;23.294;2023-04-01T16:47:49;160223.66;;;6.27;100.00
42945;BME280;28584;42.636;23.294;2023-04-01T16:50:24;160235.66;;;6.32;100.00
42945;BME280;28584;42.636;23.294;2023-04-01T16:58:39;160267.63;;;6.44;100.00
42945;BME280;28584;42.636;23.294;2023-04-01T17:01:12;160262.28;;;6.42;100.00
42945;BME280;28584;42.636;23.294;2023-04-01T17:03:46;160300.91;;;6.56;100.00
42945;BME280;28584;42.636;23.294;2023-04-01T17:06:31;160299.56;;;6.56;100.00
42945;BME280;28584;42.636;23.294;2023-04-01T17:12:17;160304.91;;;6.58;100.00
42945;BME280;28584;42.636;23.294;2023-04-01T17:22:55;160350.22;;;6.75;100.00
42945;BME280;28584;42.636;23.294;2023-04-01T17:28:42;160351.50;;;6.75;100.00
42945;BME280;28584;42.636;23.294;2023-04-01T17:31:26;160320.91;;;6.64;100.00
42945;BME280;28584;42.636;23.294;2023-04-01T17:34:17;160315.56;;;6.62;100.00
42945;BME280;28584;42.636;23.294;2023-04-01T17:45:10;160358.19;;;6.78;100.00
42945;BME280;28584;42.636;23.294;2023-04-01T17:56:47;160318.22;;;6.63;100.00
42945;BME280;28584;42.636;23.294;2023-04-01T18:01:57;160352.84;;;6.76;100.00
42945;BME280;28584;42.636;23.294;2023-04-01T18:07:46;160396.78;;;6.92;100.00
42945;BME280;28584;42.636;23.294;2023-04-01T18:10:34;160408.78;;;6.97;100.00
42945;BME280;28584;42.636;23.294;2023-04-01T18:18:52;160412.78;;;6.98;100.00
42945;BME280;28584;42.636;23.294;2023-04-01T18:21:47;160428.78;;;7.04;100.00
42945;BME280;28584;42.636;23.294;2023-04-01T18:25:19;160419.44;;;7.01;100.00
42945;BME280;28584;42.636;23.294;2023-04-01T18:27:20;160395.50;;;6.92;100.00
42945;BME280;28584;42.636;23.294;2023-04-01T18:29:54;160374.16;;;6.84;100.00
42945;BME280;28584;42.636;23.294;2023-04-01T18:32:42;160363.50;;;6.80;100.00
42945;BME280;28584;42.636;23.294;2023-04-01T18:40:45;160334.22;;;6.69;100.00
42945;BME280;28584;42.636;23.294;2023-04-01T18:43:29;160315.56;;;6.62;100.00
42945;BME280;28584;42.636;23.294;2023-04-01T18:46:27;160326.22;;;6.66;100.00
42945;BME280;28584;42.636;23.294;2023-04-01T18:49:21;160290.28;;;6.52;100.00
42945;BME280;28584;42.636;23.294;2023-04-01T18:51:56;160304.91;;;6.58;100.00
42945;BME280;28584;42.636;23.294;2023-04-01T18:54:39;160299.56;;;6.56;100.00
42945;BME280;28584;42.636;23.294;2023-04-01T18:57:14;160296.91;;;6.55;100.00
42945;BME280;28584;42.636;23.294;2023-04-01T18:59:45;160296.91;;;6.55;100.00
42945;BME280;28584;42.636;23.294;2023-04-01T19:15:44;160296.91;;;6.55;100.00
42945;BME280;28584;42.636;23.294;2023-04-01T19:21:19;160320.91;;;6.64;100.00
42945;BME280;28584;42.636;23.294;2023-04-01T19:24:02;160331.56;;;6.68;100.00
42945;BME280;28584;42.636;23.294;2023-04-01T19:26:45;160360.84;;;6.79;100.00
42945;BME280;28584;42.636;23.294;2023-04-01T19:29:26;160359.50;;;6.78;100.00
42945;BME280;28584;42.636;23.294;2023-04-01T19:34:56;160376.84;;;6.85;100.00
42945;BME280;28584;42.636;23.294;2023-04-01T19:40:20;160351.50;;;6.75;100.00
42945;BME280;28584;42.636;23.294;2023-04-01T19:43:06;160338.22;;;6.70;100.00
42945;BME280;28584;42.636;23.294;2023-04-01T19:45:46;160328.84;;;6.67;100.00
42945;BME280;28584;42.636;23.294;2023-04-01T19:51:19;160326.22;;;6.66;100.00
42945;BME280;28584;42.636;23.294;2023-04-01T19:54:10;160315.56;;;6.62;100.00
42945;BME280;28584;42.636;23.294;2023-04-01T19:56:51;160326.22;;;6.66;100.00
42945;BME280;28584;42.636;23.294;2023-04-01T20:02:13;160352.84;;;6.76;100.00
42945;BME280;28584;42.636;23.294;2023-04-01T20:04:44;160355.50;;;6.77;100.00
42945;BME280;28584;42.636;23.294;2023-04-01T20:07:18;160376.84;;;6.85;100.00
42945;BME280;28584;42.636;23.294;2023-04-01T20:10:04;160355.50;;;6.77;100.00
42945;BME280;28584;42.636;23.294;2023-04-01T20:15:37;160274.28;;;6.46;100.00
42945;BME280;28584;42.636;23.294;2023-04-01T20:18:36;160237.00;;;6.32;100.00
42945;BME280;28584;42.636;23.294;2023-04-01T20:21:15;160199.72;;;6.18;100.00
42945;BME280;28584;42.636;23.294;2023-04-01T20:23:52;160174.44;;;6.09;100.00
42945;BME280;28584;42.636;23.294;2023-04-01T20:26:33;160203.72;;;6.20;100.00
42945;BME280;28584;42.636;23.294;2023-04-01T20:31:56;160264.94;;;6.43;100.00
42945;BME280;28584;42.636;23.294;2023-04-01T20:37:42;160299.56;;;6.56;100.00
42945;BME280;28584;42.636;23.294;2023-04-01T20:40:34;160315.56;;;6.62;100.00
42945;BME280;28584;42.636;23.294;2023-04-01T20:45:55;160326.22;;;6.66;100.00
42945;BME280;28584;42.636;23.294;2023-04-01T20:51:59;160316.91;;;6.62;100.00
42945;BME280;28584;42.636;23.294;2023-04-01T20:54:32;160339.56;;;6.71;100.00
42945;BME280;28584;42.636;23.294;2023-04-01T21:05:22;160459.44;;;7.16;100.00
42945;BME280;28584;42.636;23.294;2023-04-01T21:07:58;160458.09;;;7.15;100.00
42945;BME280;28584;42.636;23.294;2023-04-01T21:16:14;160515.41;;;7.37;100.00
42945;BME280;28584;42.636;23.294;2023-04-01T21:21:41;160504.69;;;7.33;100.00
42945;BME280;28584;42.636;23.294;2023-04-01T21:38:27;160462.09;;;7.17;100.00
42945;BME280;28584;42.636;23.294;2023-04-01T21:44:49;160438.09;;;7.08;100.00
42945;BME280;28584;42.636;23.294;2023-04-01T21:47:47;160462.09;;;7.17;100.00
42945;BME280;28584;42.636;23.294;2023-04-01T21:52:51;160518.06;;;7.38;99.36
42945;BME280;28584;42.636;23.294;2023-04-01T22:06:00;160543.34;;;7.47;87.39
42945;BME280;28584;42.636;23.294;2023-04-01T22:08:47;160566.03;;;7.56;85.04
42945;BME280;28584;42.636;23.294;2023-04-01T22:16:52;160552.72;;;7.51;84.70
42945;BME280;28584;42.636;23.294;2023-04-01T22:19:48;160532.72;;;7.43;88.13
42945;BME280;28584;42.636;23.294;2023-04-01T22:22:28;160516.69;;;7.37;92.08
42945;BME280;28584;42.636;23.294;2023-04-01T22:25:46;160484.75;;;7.25;99.58